createdAt,value
2019-02-02T00:02:29.840Z,34.13
2019-02-02T00:05:03.265Z,34.33
2019-02-02T00:07:37.805Z,36.60
2019-02-02T00:10:11.920Z,35.52
2019-02-02T00:12:45.728Z,38.67
2019-02-02T00:15:18.984Z,37.73
2019-02-02T00:17:52.199Z,38.47
2019-02-02T00:20:26.528Z,39.30
2019-02-02T00:22:59.649Z,39.30
2019-02-02T00:25:36.328Z,38.53
2019-02-02T00:28:09.545Z,39.00
2019-02-02T00:30:44.684Z,37.60
2019-02-02T00:33:18.617Z,38.93
2019-02-02T00:35:53.169Z,36.97
2019-02-02T00:38:26.615Z,36.53
2019-02-02T00:41:01.216Z,37.60
2019-02-02T00:43:34.883Z,36.93
2019-02-02T00:46:08.676Z,37.63
2019-02-02T00:48:42.151Z,37.77
2019-02-02T00:51:15.804Z,37.33
2019-02-02T00:53:49.505Z,37.50
2019-02-02T00:56:23.106Z,37.87
2019-02-02T00:58:56.606Z,37.93
2019-02-02T01:01:29.823Z,37.40
2019-02-02T01:04:03.655Z,38.45
2019-02-02T01:06:38.566Z,40.13
2019-02-02T01:09:14.549Z,40.93
2019-02-02T01:11:47.975Z,45.97
2019-02-02T01:14:22.235Z,45.20
2019-02-02T01:16:55.385Z,43.65
2019-02-02T01:19:28.775Z,43.53
2019-02-02T01:22:02.039Z,43.23
2019-02-02T01:24:35.188Z,43.80
2019-02-02T01:27:08.649Z,43.73
2019-02-02T01:29:42.054Z,45.27
2019-02-02T01:32:15.595Z,45.10
2019-02-02T01:34:49.072Z,43.17
2019-02-02T01:37:22.420Z,43.30
2019-02-02T01:39:55.875Z,44.53
2019-02-02T01:42:29.467Z,44.00
2019-02-02T01:45:04.159Z,44.80
2019-02-02T01:47:37.493Z,43.53
2019-02-02T01:50:18.459Z,42.80
2019-02-02T01:52:52.031Z,43.70
2019-02-02T01:55:26.954Z,44.10
2019-02-02T01:58:01.743Z,44.33
2019-02-02T02:00:36.931Z,43.50
2019-02-02T02:03:10.232Z,43.23
2019-02-02T02:05:44.341Z,43.87
2019-02-02T02:08:18.288Z,45.70
2019-02-02T02:10:52.034Z,44.00
2019-02-02T02:16:17.457Z,44.77
2019-02-02T02:18:51.334Z,45.40
2019-02-02T02:21:27.486Z,45.17
2019-02-02T02:29:45.397Z,48.33
2019-02-02T02:32:19.607Z,47.73
2019-02-02T02:34:54.526Z,51.43
2019-02-02T02:37:28.106Z,52.10
2019-02-02T02:40:01.965Z,55.00
2019-02-02T02:42:35.798Z,55.15
2019-02-02T02:45:11.832Z,57.03
2019-02-02T02:47:46.230Z,55.93
2019-02-02T02:50:21.876Z,56.73
2019-02-02T02:52:55.103Z,52.70
2019-02-02T02:55:28.468Z,49.07
2019-02-02T02:58:02.457Z,48.30
2019-02-02T03:00:36.759Z,46.77
2019-02-02T03:03:11.772Z,45.30
2019-02-02T03:05:46.471Z,48.87
2019-02-02T03:08:20.169Z,46.80
2019-02-02T03:10:53.855Z,49.03
2019-02-02T03:13:27.084Z,47.60
2019-02-02T03:16:00.536Z,44.93
2019-02-02T03:18:34.461Z,45.73
2019-02-02T03:21:07.840Z,42.55
2019-02-02T03:23:41.190Z,46.77
2019-02-02T03:26:14.378Z,50.87
2019-02-02T03:28:53.540Z,47.77
2019-02-02T03:31:22.479Z,42.40
2019-02-02T03:33:55.745Z,44.90
2019-02-02T03:36:29.287Z,45.23
2019-02-02T03:39:02.642Z,47.33
2019-02-02T03:41:36.214Z,42.23
2019-02-02T03:44:09.861Z,42.80
2019-02-02T03:46:43.272Z,42.43
2019-02-02T03:49:17.016Z,41.17
2019-02-02T03:51:50.133Z,42.57
2019-02-02T03:54:23.135Z,44.73
2019-02-02T03:56:56.327Z,44.37
2019-02-02T03:59:30.278Z,46.93
2019-02-02T04:02:03.423Z,43.17
2019-02-02T04:04:36.548Z,40.70
2019-02-02T04:07:09.689Z,41.57
2019-02-02T04:09:42.853Z,40.07
2019-02-02T04:12:16.060Z,40.90
2019-02-02T04:14:49.140Z,44.27
2019-02-02T04:17:23.715Z,40.93
2019-02-02T04:19:56.922Z,41.93
2019-02-02T04:22:31.140Z,38.78
2019-02-02T04:25:04.533Z,38.53
2019-02-02T04:27:37.803Z,41.63
2019-02-02T04:30:16.437Z,42.90
2019-02-02T04:32:50.247Z,39.00
2019-02-02T04:35:23.727Z,37.93
2019-02-02T04:37:58.369Z,37.57
2019-02-02T04:40:32.125Z,42.57
2019-02-02T04:43:07.042Z,40.17
2019-02-02T04:45:40.705Z,38.07
2019-02-02T04:48:14.952Z,39.23
2019-02-02T04:50:48.174Z,37.73
2019-02-02T04:53:21.162Z,38.70
2019-02-02T04:55:54.678Z,39.77
2019-02-02T04:58:27.990Z,39.23
2019-02-02T05:01:01.560Z,36.97
2019-02-02T05:03:35.173Z,39.10
2019-02-02T05:06:08.334Z,38.80
2019-02-02T05:08:41.541Z,39.06
2019-02-02T05:11:14.933Z,36.85
2019-02-02T05:13:48.150Z,35.20
2019-02-02T05:16:21.573Z,36.60
2019-02-02T05:18:54.772Z,37.20
2019-02-02T05:21:29.013Z,36.20
2019-02-02T05:24:02.327Z,35.83
2019-02-02T05:26:35.598Z,38.13
2019-02-02T05:29:08.578Z,35.67
2019-02-02T05:31:41.538Z,35.17
2019-02-02T05:34:14.591Z,37.47
2019-02-02T05:36:49.351Z,35.77
2019-02-02T05:39:22.594Z,36.70
2019-02-02T05:41:55.665Z,36.97
2019-02-02T05:44:29.021Z,36.53
2019-02-02T05:47:03.497Z,36.80
2019-02-02T05:49:37.192Z,37.58
2019-02-02T05:52:10.139Z,38.10
2019-02-02T05:54:43.392Z,37.67
2019-02-02T05:57:16.667Z,38.83
2019-02-02T05:59:52.778Z,38.90
2019-02-02T06:02:24.396Z,37.93
2019-02-02T06:04:57.384Z,39.23
2019-02-02T06:07:30.478Z,38.77
2019-02-02T06:10:03.842Z,40.47
2019-02-02T06:12:38.050Z,39.97
2019-02-02T06:15:11.602Z,41.02
2019-02-02T06:17:44.818Z,42.03
2019-02-02T06:20:18.843Z,40.53
2019-02-02T06:22:53.058Z,42.10
2019-02-02T06:25:26.493Z,42.65
2019-02-02T06:27:59.862Z,42.50
2019-02-02T06:30:33.075Z,42.70
2019-02-02T06:33:06.461Z,44.13
2019-02-02T06:35:39.572Z,43.17
2019-02-02T06:38:13.371Z,44.27
2019-02-02T06:40:47.270Z,47.20
2019-02-02T06:43:21.869Z,45.40
2019-02-02T06:45:55.218Z,46.80
2019-02-02T06:48:28.585Z,47.07
2019-02-02T06:51:01.882Z,46.43
2019-02-02T06:53:35.087Z,45.93
2019-02-02T06:56:08.125Z,48.57
2019-02-02T06:58:42.374Z,47.97
2019-02-02T07:01:15.670Z,48.93
2019-02-02T07:03:49.971Z,50.37
2019-02-02T07:06:23.111Z,50.50
2019-02-02T07:08:56.367Z,49.63
2019-02-02T07:11:29.335Z,50.67
2019-02-02T07:14:02.459Z,49.90
2019-02-02T07:16:37.003Z,50.10
2019-02-02T07:19:10.326Z,49.87
2019-02-02T07:21:44.287Z,48.87
2019-02-02T07:24:24.703Z,52.17
2019-02-02T07:26:58.121Z,50.90
2019-02-02T07:29:31.669Z,52.70
2019-02-02T07:32:05.143Z,50.33
2019-02-02T07:34:38.265Z,50.87
2019-02-02T07:37:12.762Z,51.85
2019-02-02T07:39:46.244Z,51.73
2019-02-02T07:42:19.522Z,51.67
2019-02-02T07:44:53.744Z,51.70
2019-02-02T07:47:26.958Z,52.37
2019-02-02T07:50:00.329Z,51.87
2019-02-02T07:52:33.240Z,52.97
2019-02-02T07:55:07.828Z,53.93
2019-02-02T07:57:41.960Z,52.20
2019-02-02T08:00:39.725Z,52.17
2019-02-02T08:03:02.628Z,52.40
2019-02-02T08:05:36.489Z,52.77
2019-02-02T08:08:10.041Z,53.27
2019-02-02T08:10:45.058Z,54.60
2019-02-02T08:13:24.302Z,52.63
2019-02-02T08:15:56.543Z,53.50
2019-02-02T08:18:30.043Z,52.50
2019-02-02T08:21:03.990Z,54.20
2019-02-02T08:23:46.263Z,55.00
2019-02-02T08:26:22.059Z,55.55
2019-02-02T08:28:55.600Z,53.58
2019-02-02T08:31:28.812Z,53.92
2019-02-02T08:34:02.260Z,52.97
2019-02-02T08:36:35.528Z,54.20
2019-02-02T08:39:10.427Z,54.83
2019-02-02T08:41:44.820Z,54.83
2019-02-02T08:44:19.331Z,54.70
2019-02-02T08:46:52.570Z,55.17
2019-02-02T08:49:26.050Z,55.83
2019-02-02T08:51:59.324Z,56.37
2019-02-02T08:54:32.799Z,54.27
2019-02-02T08:57:06.604Z,55.33
2019-02-02T08:59:41.167Z,56.33
2019-02-02T09:02:14.833Z,56.83
2019-02-02T09:04:48.710Z,54.23
2019-02-02T09:07:22.242Z,54.80
2019-02-02T09:09:55.512Z,56.63
2019-02-02T09:12:29.320Z,56.20
2019-02-02T09:15:03.333Z,56.80
2019-02-02T09:17:37.063Z,57.23
2019-02-02T09:20:13.586Z,60.23
2019-02-02T09:22:47.920Z,59.73
2019-02-02T09:25:22.833Z,58.75
2019-02-02T09:27:56.497Z,64.97
2019-02-02T09:30:34.733Z,62.43
2019-02-02T09:33:09.282Z,63.03
2019-02-02T09:35:43.051Z,64.07
2019-02-02T09:38:18.078Z,63.53
2019-02-02T09:40:51.624Z,62.05
2019-02-02T09:43:25.452Z,62.70
2019-02-02T09:46:00.000Z,65.33
2019-02-02T09:48:33.850Z,65.80
2019-02-02T09:51:08.167Z,67.67
2019-02-02T09:53:42.061Z,65.93
2019-02-02T09:56:17.548Z,67.33
2019-02-02T09:58:51.746Z,68.10
2019-02-02T10:01:27.799Z,66.67
2019-02-02T10:03:59.806Z,68.40
2019-02-02T10:06:34.084Z,67.97
2019-02-02T10:09:08.788Z,68.33
2019-02-02T10:11:42.718Z,68.02
2019-02-02T10:14:16.177Z,83.00
2019-02-02T10:16:51.193Z,73.42
2019-02-02T10:19:25.073Z,70.47
2019-02-02T10:21:59.598Z,72.15
2019-02-02T10:24:34.426Z,70.90
2019-02-02T10:27:10.599Z,72.72
2019-02-02T10:29:48.447Z,70.97
2019-02-02T10:32:22.472Z,72.90
2019-02-02T10:34:58.025Z,72.57
2019-02-02T10:37:33.507Z,75.10
2019-02-02T10:40:09.354Z,75.00
2019-02-02T10:42:43.802Z,72.10
2019-02-02T10:45:18.827Z,69.93
2019-02-02T10:47:52.716Z,73.27
2019-02-02T10:50:28.805Z,72.85
2019-02-02T10:53:03.709Z,70.63
2019-02-02T10:55:37.089Z,71.22
2019-02-02T10:58:11.114Z,70.40
2019-02-02T11:00:44.799Z,70.13
2019-02-02T11:03:19.104Z,68.27
2019-02-02T11:05:53.779Z,68.73
2019-02-02T11:08:28.491Z,69.33
2019-02-02T11:11:02.245Z,67.57
2019-02-02T11:13:38.175Z,69.63
2019-02-02T11:16:15.617Z,70.30
2019-02-02T11:18:49.441Z,67.40
2019-02-02T11:21:24.541Z,66.23
2019-02-02T11:23:59.960Z,69.10
2019-02-02T11:26:34.694Z,67.20
2019-02-02T11:29:11.472Z,67.37
2019-02-02T11:31:48.253Z,64.60
2019-02-02T11:34:24.118Z,63.57
2019-02-02T11:36:58.189Z,66.03
2019-02-02T11:39:32.379Z,66.17
2019-02-02T11:42:07.577Z,65.97
2019-02-02T11:44:42.883Z,65.10
2019-02-02T11:47:21.762Z,63.58
2019-02-02T11:50:16.541Z,65.47
2019-02-02T11:52:50.842Z,67.80
2019-02-02T11:55:30.785Z,69.67
2019-02-02T11:58:04.941Z,70.27
2019-02-02T12:00:43.184Z,70.57
2019-02-02T12:03:16.505Z,69.60
2019-02-02T12:05:50.090Z,73.83
2019-02-02T12:08:23.852Z,72.12
2019-02-02T12:10:57.434Z,69.05
2019-02-02T12:13:31.592Z,72.23
2019-02-02T12:16:05.541Z,71.37
2019-02-02T12:18:40.323Z,70.22
2019-02-02T12:21:14.196Z,74.20
2019-02-02T12:23:48.652Z,73.73
2019-02-02T12:26:24.500Z,71.22
2019-02-02T12:28:58.094Z,72.73
2019-02-02T12:31:32.889Z,74.77
2019-02-02T12:34:07.453Z,72.42
2019-02-02T12:36:41.523Z,70.37
2019-02-02T12:39:15.831Z,71.02
2019-02-02T12:41:50.070Z,73.90
2019-02-02T12:44:24.565Z,71.47
2019-02-02T12:46:59.611Z,70.13
2019-02-02T12:49:33.437Z,73.00
2019-02-02T12:52:06.591Z,71.90
2019-02-02T12:54:40.352Z,72.20
2019-02-02T12:57:15.771Z,73.42
2019-02-02T12:59:49.487Z,74.50
2019-02-02T13:02:25.503Z,69.37
2019-02-02T13:05:00.548Z,71.63
2019-02-02T13:07:36.984Z,71.37
2019-02-02T13:10:15.363Z,70.83
2019-02-02T13:12:49.517Z,68.47
2019-02-02T13:15:23.254Z,69.93
2019-02-02T13:17:57.153Z,68.90
2019-02-02T13:20:31.087Z,69.45
2019-02-02T13:23:04.627Z,68.97
2019-02-02T13:25:38.906Z,67.13
2019-02-02T13:28:12.867Z,70.37
2019-02-02T13:30:47.059Z,69.63
2019-02-02T13:33:21.685Z,71.57
2019-02-02T13:35:55.630Z,70.85
2019-02-02T13:38:29.095Z,69.37
2019-02-02T13:41:02.471Z,71.12
2019-02-02T13:43:35.931Z,70.23
2019-02-02T13:46:09.184Z,70.57
2019-02-02T13:48:43.575Z,71.20
2019-02-02T13:51:17.106Z,71.07
2019-02-02T13:53:51.223Z,73.10
2019-02-02T13:56:25.153Z,71.42
2019-02-02T13:58:59.281Z,73.60
2019-02-02T14:01:41.696Z,74.67
2019-02-02T14:04:08.906Z,74.83
2019-02-02T14:06:42.581Z,71.70
2019-02-02T14:09:16.510Z,74.07
2019-02-02T14:11:49.933Z,81.00
2019-02-02T14:14:24.291Z,76.73
2019-02-02T14:16:57.623Z,79.37
2019-02-02T14:19:32.819Z,80.63
2019-02-02T14:22:06.533Z,79.33
2019-02-02T14:24:40.279Z,79.53
2019-02-02T14:27:14.614Z,79.62
2019-02-02T14:29:48.292Z,82.17
2019-02-02T14:32:22.173Z,82.60
2019-02-02T14:34:55.452Z,84.57
2019-02-02T14:37:28.897Z,84.27
2019-02-02T14:40:02.393Z,83.92
2019-02-02T14:42:35.647Z,83.83
2019-02-02T14:45:11.658Z,87.50
2019-02-02T14:47:45.681Z,86.28
2019-02-02T14:50:20.860Z,89.17
2019-02-02T14:52:55.027Z,86.70
2019-02-02T14:55:30.558Z,89.87
2019-02-02T14:58:03.913Z,86.37
2019-02-02T15:00:37.386Z,86.93
2019-02-02T15:03:10.743Z,85.37
2019-02-02T15:05:44.191Z,89.30
2019-02-02T15:08:17.353Z,86.37
2019-02-02T15:10:51.184Z,84.45
2019-02-02T15:13:24.691Z,89.70
2019-02-02T15:15:58.360Z,87.77
2019-02-02T15:18:32.260Z,85.10
2019-02-02T15:21:05.574Z,86.70
2019-02-02T15:23:39.072Z,85.17
2019-02-02T15:26:12.548Z,87.30
2019-02-02T15:28:45.984Z,86.40
2019-02-02T15:31:19.328Z,86.90
2019-02-02T15:33:53.004Z,87.77
2019-02-02T15:36:26.235Z,84.23
2019-02-02T15:38:59.841Z,88.83
2019-02-02T15:41:33.318Z,84.77
2019-02-02T15:44:06.722Z,85.90
2019-02-02T15:46:48.751Z,87.60
2019-02-02T15:49:16.165Z,86.60
2019-02-02T15:51:49.987Z,85.53
2019-02-02T15:54:23.749Z,87.57
2019-02-02T15:56:57.466Z,85.62
2019-02-02T15:59:30.935Z,87.50
2019-02-02T16:02:04.311Z,88.90
2019-02-02T16:04:38.123Z,86.63
2019-02-02T16:07:11.725Z,88.27
2019-02-02T16:09:53.281Z,89.17
2019-02-02T16:12:26.516Z,85.40
2019-02-02T16:15:02.823Z,89.07
2019-02-02T16:17:37.065Z,92.37
2019-02-02T16:20:16.356Z,87.43
2019-02-02T16:22:49.573Z,89.00
2019-02-02T16:25:23.072Z,90.17
2019-02-02T16:27:57.553Z,91.23
2019-02-02T16:30:33.921Z,86.53
2019-02-02T16:33:07.594Z,89.70
2019-02-02T16:35:45.955Z,90.28
2019-02-02T16:38:17.129Z,91.77
2019-02-02T16:40:53.147Z,92.60
2019-02-02T16:43:27.139Z,87.23
2019-02-02T16:46:10.584Z,90.37
2019-02-02T16:48:42.059Z,90.53
2019-02-02T16:51:15.460Z,88.93
2019-02-02T16:53:48.749Z,90.10
2019-02-02T16:56:22.154Z,89.73
2019-02-02T16:58:55.704Z,91.27
2019-02-02T17:01:29.903Z,89.90
2019-02-02T17:04:15.049Z,91.67
2019-02-02T17:06:38.092Z,91.73
2019-02-02T17:09:13.957Z,91.97
2019-02-02T17:11:46.606Z,90.43
2019-02-02T17:14:19.849Z,91.93
2019-02-02T17:16:53.215Z,90.45
2019-02-02T17:19:26.616Z,90.90
2019-02-02T17:22:01.421Z,92.80
2019-02-02T17:24:34.906Z,89.03
2019-02-02T17:27:10.311Z,91.93
2019-02-02T17:29:43.659Z,89.17
2019-02-02T17:32:18.277Z,86.40
2019-02-02T17:34:52.704Z,87.13
2019-02-02T17:37:26.216Z,88.00
2019-02-02T17:39:59.680Z,86.10
2019-02-02T17:42:33.166Z,87.73
2019-02-02T17:45:07.933Z,86.23
2019-02-02T17:47:41.399Z,84.07
2019-02-02T17:50:17.623Z,91.20
2019-02-02T17:52:51.311Z,90.80
2019-02-02T17:55:24.704Z,95.43
2019-02-02T17:57:58.263Z,99.65
2019-02-02T18:00:42.313Z,88.37
2019-02-02T18:03:16.384Z,83.13
2019-02-02T18:05:49.751Z,81.73
2019-02-02T18:08:23.112Z,82.80
2019-02-02T18:10:56.545Z,82.73
2019-02-02T18:13:30.250Z,82.50
2019-02-02T18:16:15.385Z,83.33
2019-02-02T18:18:42.961Z,80.50
2019-02-02T18:21:16.146Z,84.60
2019-02-02T18:23:49.449Z,82.87
2019-02-02T18:26:22.696Z,85.90
2019-02-02T18:28:56.302Z,77.37
2019-02-02T18:31:29.797Z,79.00
2019-02-02T18:34:03.064Z,78.53
2019-02-02T18:36:36.848Z,77.50
2019-02-02T18:39:11.148Z,76.47
2019-02-02T18:41:44.666Z,78.20
2019-02-02T18:44:18.215Z,80.97
2019-02-02T18:46:52.190Z,78.17
2019-02-02T18:49:25.707Z,75.55
2019-02-02T18:52:00.559Z,79.53
2019-02-02T18:54:34.115Z,82.63
2019-02-02T18:57:09.050Z,77.80
2019-02-02T18:59:42.424Z,82.60
2019-02-02T19:02:15.763Z,81.67
2019-02-02T19:05:02.984Z,81.63
2019-02-02T19:07:25.854Z,85.03
2019-02-02T19:09:59.278Z,83.13
2019-02-02T19:12:32.744Z,84.30
2019-02-02T19:15:08.779Z,81.33
2019-02-02T19:17:42.591Z,80.43
2019-02-02T19:20:25.585Z,84.23
2019-02-02T19:22:59.272Z,78.93
2019-02-02T19:25:32.886Z,77.97
2019-02-02T19:28:07.247Z,79.37
2019-02-02T19:30:40.717Z,76.22
2019-02-02T19:33:14.046Z,79.03
2019-02-02T19:35:47.520Z,82.30
2019-02-02T19:38:20.920Z,79.20
2019-02-02T19:40:57.777Z,81.72
2019-02-02T19:43:31.425Z,83.97
2019-02-02T19:46:05.035Z,86.83
2019-02-02T19:48:38.414Z,88.17
2019-02-02T19:51:11.639Z,87.97
2019-02-02T19:53:44.910Z,89.67
2019-02-02T19:56:19.384Z,80.20
2019-02-02T19:58:52.600Z,76.07
2019-02-02T20:01:25.851Z,75.83
2019-02-02T20:03:59.885Z,77.62
2019-02-02T20:06:33.284Z,72.12
2019-02-02T20:09:08.818Z,70.13
2019-02-02T20:11:42.142Z,71.17
2019-02-02T20:14:15.534Z,69.87
2019-02-02T20:16:49.366Z,69.83
2019-02-02T20:19:22.809Z,71.47
2019-02-02T20:21:56.001Z,77.73
2019-02-02T20:24:29.438Z,91.30
2019-02-02T20:27:02.698Z,87.10
2019-02-02T20:29:35.726Z,90.67
2019-02-02T20:32:10.340Z,92.23
2019-02-02T20:34:43.818Z,93.90
2019-02-02T20:37:17.102Z,97.13
2019-02-02T20:39:50.340Z,95.40
2019-02-02T20:42:24.902Z,94.67
2019-02-02T20:44:58.448Z,93.90
2019-02-02T20:47:31.819Z,95.53
2019-02-02T20:50:06.155Z,95.27
2019-02-02T20:52:47.030Z,97.60
2019-02-02T20:55:26.539Z,99.47
2019-02-02T20:57:59.792Z,98.17
2019-02-02T21:00:33.972Z,104.97
2019-02-02T21:03:07.496Z,104.93
2019-02-02T21:05:51.952Z,106.13
2019-02-02T21:08:16.462Z,106.03
2019-02-02T21:10:50.464Z,105.40
2019-02-02T21:13:23.636Z,111.10
2019-02-02T21:15:56.711Z,109.73
2019-02-02T21:18:29.959Z,113.60
2019-02-02T21:21:04.159Z,114.67
2019-02-02T21:23:37.587Z,115.17
2019-02-02T21:26:11.697Z,117.17
2019-02-02T21:28:50.347Z,115.83
2019-02-02T21:31:20.602Z,116.90
2019-02-02T21:33:54.272Z,119.80
2019-02-02T21:36:27.561Z,115.00
2019-02-02T21:39:01.006Z,114.87
2019-02-02T21:41:35.683Z,116.12
2019-02-02T21:44:12.164Z,116.07
2019-02-02T21:46:45.581Z,118.77
2019-02-02T21:49:18.913Z,118.53
2019-02-02T21:51:51.914Z,117.33
2019-02-02T21:54:25.880Z,121.80
2019-02-02T21:56:59.275Z,121.40
2019-02-02T21:59:32.489Z,118.10
2019-02-02T22:02:06.556Z,120.60
2019-02-02T22:04:41.523Z,119.00
2019-02-02T22:07:14.766Z,119.07
2019-02-02T22:09:48.494Z,114.63
2019-02-02T22:12:21.724Z,115.33
2019-02-02T22:14:54.956Z,114.27
2019-02-02T22:17:29.653Z,111.92
2019-02-02T22:20:03.036Z,110.47
2019-02-02T22:22:36.289Z,108.47
2019-02-02T22:25:29.594Z,109.67
2019-02-02T22:28:03.190Z,114.03
2019-02-02T22:30:41.575Z,114.33
2019-02-02T22:33:16.351Z,115.10
2019-02-02T22:35:49.502Z,115.53
2019-02-02T22:38:24.274Z,114.73
2019-02-02T22:40:57.374Z,117.97
2019-02-02T22:43:32.672Z,112.60
2019-02-02T22:46:12.529Z,110.00
2019-02-02T22:48:44.988Z,105.10
2019-02-02T22:51:19.278Z,106.87
2019-02-02T22:53:52.884Z,104.77
2019-02-02T22:56:25.962Z,102.40
2019-02-02T22:58:59.548Z,100.70
2019-02-02T23:01:33.707Z,93.87
2019-02-02T23:04:15.644Z,90.80
2019-02-02T23:07:02.828Z,88.90
2019-02-02T23:10:25.296Z,85.90
2019-02-02T23:13:13.986Z,86.30
2019-02-02T23:16:02.857Z,84.37
2019-02-02T23:18:37.772Z,82.80
2019-02-02T23:21:11.391Z,80.90
2019-02-02T23:23:45.444Z,78.63
2019-02-02T23:26:19.220Z,80.33
2019-02-02T23:28:53.154Z,74.80
2019-02-02T23:31:27.297Z,77.47
2019-02-02T23:34:01.755Z,77.55
2019-02-02T23:36:35.596Z,71.33
2019-02-02T23:39:09.868Z,73.63
2019-02-02T23:41:43.608Z,78.20
2019-02-02T23:44:17.708Z,75.13
2019-02-02T23:47:10.982Z,76.40
2019-02-02T23:49:45.723Z,76.33
2019-02-02T23:52:19.448Z,75.60
2019-02-02T23:54:53.135Z,77.67
2019-02-02T23:57:27.427Z,78.00
